createdAt,value
2018-07-22T00:24:02.634Z,3.2
2018-07-22T00:39:02.669Z,4
2018-07-22T00:54:09.693Z,3.5
2018-07-22T02:04:22.347Z,3.3
2018-07-22T02:49:40.196Z,4.1
2018-07-22T04:00:05.981Z,3.3
2018-07-22T04:50:19.664Z,3.9
2018-07-22T05:20:19.728Z,3.5
2018-07-22T05:35:31.497Z,3.7
2018-07-22T06:10:44.172Z,2.9
2018-07-22T06:25:43.906Z,3.5
2018-07-22T06:45:44.244Z,3.5
2018-07-22T07:00:59.929Z,2.4
2018-07-22T08:41:23.775Z,4.6
2018-07-22T08:56:23.736Z,3.9
2018-07-22T09:11:36.403Z,4
2018-07-22T10:16:47.713Z,5.8
2018-07-22T10:36:47.712Z,6.7
2018-07-22T11:57:17.520Z,16.3
2018-07-22T12:17:17.826Z,13.4
2018-07-22T12:47:30.247Z,14.4
2018-07-22T13:02:30.528Z,13.5
2018-07-22T13:22:42.157Z,14.2
2018-07-22T13:37:41.885Z,15.2
2018-07-22T13:52:41.990Z,13.7
2018-07-22T14:12:53.656Z,13.5
2018-07-22T14:27:54.605Z,15.7
2018-07-22T14:42:53.836Z,17.7
2018-07-22T14:57:53.650Z,17.9
2018-07-22T15:18:05.877Z,14.6
2018-07-22T15:33:05.625Z,11.6
2018-07-22T15:48:05.750Z,13.1
2018-07-22T16:08:17.019Z,10.8
2018-07-22T16:23:17.589Z,10.1
2018-07-22T16:38:17.091Z,12.8
2018-07-22T16:53:17.074Z,9.3
2018-07-22T17:13:29.509Z,7.6
2018-07-22T17:28:29.637Z,7.4
2018-07-22T17:43:29.224Z,7.4
2018-07-22T18:03:40.119Z,7.1
2018-07-22T18:18:40.246Z,5.7
2018-07-22T18:53:40.089Z,5.6
2018-07-22T19:08:52.938Z,6.7
2018-07-22T19:38:52.810Z,7.1
2018-07-22T19:59:05.230Z,6.5
2018-07-22T20:49:18.514Z,5.4
